createdAt,value
2018-05-24T00:05:14.804Z,2.87
2018-05-24T00:11:09.833Z,2.51
2018-05-24T00:17:04.803Z,3.17
2018-05-24T00:22:59.832Z,3.38
2018-05-24T00:28:54.793Z,3.1
2018-05-24T00:34:49.833Z,2.65
2018-05-24T00:40:44.841Z,3.03
2018-05-24T00:46:39.865Z,2.45
2018-05-24T00:52:34.869Z,3.08
2018-05-24T00:58:29.832Z,3.29
2018-05-24T01:04:24.860Z,2.84
2018-05-24T01:10:19.818Z,2.59
2018-05-24T01:16:14.801Z,2.67
2018-05-24T01:22:09.808Z,3.89
2018-05-24T01:28:04.961Z,3.23
2018-05-24T01:33:59.861Z,3.19
2018-05-24T01:39:54.855Z,3.44
2018-05-24T01:45:49.836Z,3.25
2018-05-24T01:51:44.867Z,3.33
2018-05-24T01:57:39.839Z,3.36
2018-05-24T02:03:34.869Z,3.08
2018-05-24T02:09:29.903Z,3.26
2018-05-24T02:15:24.822Z,3
2018-05-24T02:21:19.869Z,3.07
2018-05-24T02:27:14.889Z,3.34
2018-05-24T02:33:09.821Z,3.34
2018-05-24T02:39:04.901Z,2.92
2018-05-24T02:45:00.567Z,4.22
2018-05-24T02:50:54.912Z,4.55
2018-05-24T02:56:49.943Z,3.59
2018-05-24T03:02:44.928Z,4.54
2018-05-24T03:08:39.878Z,5.31
2018-05-24T03:14:34.852Z,4.54
2018-05-24T03:20:29.858Z,4.57
2018-05-24T03:26:24.854Z,4.71
2018-05-24T03:32:19.906Z,3.29
2018-05-24T03:38:14.903Z,3.63
2018-05-24T03:44:09.886Z,3.21
2018-05-24T03:50:04.842Z,2.83
2018-05-24T03:55:59.894Z,4.09
2018-05-24T04:01:54.899Z,4.86
2018-05-24T04:07:49.856Z,5.03
2018-05-24T04:13:44.855Z,5.56
2018-05-24T04:19:39.875Z,4.86
2018-05-24T04:25:34.889Z,4.88
2018-05-24T04:31:29.905Z,4.73
2018-05-24T04:37:24.920Z,4.66
2018-05-24T04:43:19.913Z,4.17
2018-05-24T04:49:14.864Z,3.17
2018-05-24T04:55:09.922Z,3.84
2018-05-24T05:01:04.920Z,3.79
2018-05-24T05:06:59.936Z,3.65
2018-05-24T05:12:54.907Z,3.8
2018-05-24T05:18:49.915Z,4.06
2018-05-24T05:24:44.926Z,4.03
2018-05-24T05:30:39.922Z,3.74
2018-05-24T05:36:34.894Z,4.07
2018-05-24T05:42:29.891Z,4.64
2018-05-24T05:48:24.907Z,5.67
2018-05-24T05:54:19.934Z,6.7
2018-05-24T06:00:14.968Z,5.43
2018-05-24T06:06:09.883Z,5.47
2018-05-24T06:12:04.947Z,5.45
2018-05-24T06:17:59.945Z,5.91
2018-05-24T06:23:54.916Z,5.61
2018-05-24T06:29:49.932Z,6.15
2018-05-24T06:35:44.968Z,6.93
2018-05-24T06:41:39.912Z,6.63
2018-05-24T06:47:34.970Z,7.19
2018-05-24T06:53:29.929Z,8.4
2018-05-24T06:59:24.924Z,8.3
2018-05-24T07:05:19.918Z,7.66
2018-05-24T07:11:14.925Z,8.88
2018-05-24T07:17:09.924Z,9.06
2018-05-24T07:23:05.290Z,8.97
2018-05-24T07:28:59.905Z,8.35
2018-05-24T07:34:54.931Z,8.28
2018-05-24T07:40:49.919Z,7.63
2018-05-24T07:46:44.959Z,9.48
2018-05-24T07:52:39.958Z,9.25
2018-05-24T07:58:34.927Z,9.63
2018-05-24T08:04:29.921Z,10.96
2018-05-24T08:10:24.953Z,9.28
2018-05-24T08:16:19.913Z,9.05
2018-05-24T08:22:14.931Z,8.28
2018-05-24T08:28:09.962Z,8.07
2018-05-24T08:34:04.923Z,7.77
2018-05-24T08:39:59.944Z,7.15
2018-05-24T08:45:54.952Z,7.33
2018-05-24T08:51:49.968Z,7.83
2018-05-24T08:57:44.964Z,7.62
2018-05-24T09:03:39.959Z,8.9
2018-05-24T09:09:34.938Z,8.61
2018-05-24T09:15:29.950Z,8.67
2018-05-24T09:21:24.944Z,8.93
2018-05-24T09:27:19.970Z,9.07
2018-05-24T09:33:14.924Z,8.83
2018-05-24T09:39:09.973Z,8.97
2018-05-24T09:45:04.933Z,7.9
2018-05-24T09:50:59.939Z,8
2018-05-24T09:56:54.944Z,7.56
2018-05-24T10:02:49.919Z,8.47
2018-05-24T10:08:44.976Z,8.09
2018-05-24T10:14:39.932Z,8.51
2018-05-24T10:20:34.965Z,8.36
2018-05-24T10:26:29.945Z,8.09
2018-05-24T10:32:24.943Z,8.54
2018-05-24T10:38:19.974Z,8.17
2018-05-24T10:44:14.956Z,8.01
2018-05-24T10:50:10.042Z,7.38
2018-05-24T10:56:04.989Z,7.47
2018-05-24T11:01:59.986Z,8.02
2018-05-24T11:07:54.938Z,8.7
2018-05-24T11:13:50.048Z,8.9
2018-05-24T11:19:44.995Z,8.77
2018-05-24T11:25:39.992Z,8.63
2018-05-24T11:31:34.991Z,8.88
2018-05-24T11:37:29.969Z,7.93
2018-05-24T11:43:25.211Z,7.94
2018-05-24T11:49:20.001Z,8.45
2018-05-24T11:55:15.001Z,7.89
2018-05-24T12:01:09.994Z,7.32
2018-05-24T12:07:05.053Z,7.52
2018-05-24T12:13:00.001Z,6.67
2018-05-24T12:18:55.000Z,8.37
2018-05-24T12:24:50.023Z,7.98
2018-05-24T12:30:45.029Z,7.48
2018-05-24T12:36:40.003Z,7.78
2018-05-24T12:42:35.151Z,7.53
2018-05-24T12:48:30.031Z,7.78
2018-05-24T12:54:25.009Z,8.23
2018-05-24T13:00:20.050Z,7.42
2018-05-24T13:06:15.031Z,7.32
2018-05-24T13:12:10.048Z,6.88
2018-05-24T13:18:05.187Z,7.53
2018-05-24T13:24:00.056Z,6.74
2018-05-24T13:29:55.021Z,6.64
2018-05-24T13:35:50.054Z,6.48
2018-05-24T13:41:45.016Z,6.64
2018-05-24T13:47:40.051Z,6.74
2018-05-24T13:53:35.036Z,6.39
2018-05-24T13:59:30.042Z,6.7
2018-05-24T14:05:25.135Z,6.72
2018-05-24T14:11:20.054Z,5.8
2018-05-24T14:17:15.077Z,6.43
2018-05-24T14:23:10.042Z,6.41
2018-05-24T14:29:05.089Z,6.18
2018-05-24T14:35:00.082Z,6.37
2018-05-24T14:40:55.068Z,6.67
2018-05-24T14:46:50.097Z,5.99
2018-05-24T14:52:45.081Z,6.19
2018-05-24T14:58:40.132Z,5.82
2018-05-24T15:04:35.092Z,5.88
2018-05-24T15:10:30.181Z,5.92
2018-05-24T15:16:25.115Z,5.46
2018-05-24T15:22:20.093Z,5.09
2018-05-24T15:28:15.113Z,6.46
2018-05-24T15:34:10.106Z,6.3
2018-05-24T15:40:05.085Z,6.61
2018-05-24T15:46:00.141Z,6.48
2018-05-24T15:51:55.070Z,6.68
2018-05-24T15:57:50.078Z,6.18
2018-05-24T16:03:45.113Z,7.14
2018-05-24T16:09:40.119Z,6.19
2018-05-24T16:15:35.099Z,5.42
2018-05-24T16:21:30.145Z,6.24
2018-05-24T16:27:25.147Z,6.16
2018-05-24T16:33:20.122Z,5.93
2018-05-24T16:39:15.123Z,5.8
2018-05-24T16:45:10.143Z,6.86
2018-05-24T16:51:05.155Z,6.61
2018-05-24T16:57:00.092Z,6.66
2018-05-24T17:02:55.224Z,6.58
2018-05-24T17:08:50.129Z,7.63
2018-05-24T17:14:45.129Z,7.3
2018-05-24T17:20:40.092Z,7.27
2018-05-24T17:26:35.122Z,6.67
2018-05-24T17:32:30.140Z,7.36
2018-05-24T17:38:25.125Z,6.68
2018-05-24T17:44:20.159Z,5.72
2018-05-24T17:50:15.205Z,6.7
2018-05-24T17:56:10.152Z,6
2018-05-24T18:02:05.179Z,6.42
2018-05-24T18:08:00.146Z,6.89
2018-05-24T18:13:55.164Z,7.36
2018-05-24T18:19:50.135Z,8.5
2018-05-24T18:25:45.143Z,8.37
2018-05-24T18:31:40.197Z,9
2018-05-24T18:37:35.169Z,8.87
2018-05-24T18:43:30.145Z,8.15
2018-05-24T18:49:25.147Z,8.79
2018-05-24T18:55:20.156Z,7.43
2018-05-24T19:01:15.217Z,7
2018-05-24T19:07:10.214Z,6.63
2018-05-24T19:13:05.192Z,6.42
2018-05-24T19:19:00.200Z,7.19
2018-05-24T19:24:55.234Z,7.04
2018-05-24T19:30:50.199Z,7.47
2018-05-24T19:36:45.156Z,7.85
2018-05-24T19:42:40.153Z,7.12
2018-05-24T19:48:35.209Z,6.09
2018-05-24T19:54:30.190Z,7.83
2018-05-24T20:00:25.212Z,7.29
2018-05-24T20:06:20.186Z,6.69
2018-05-24T20:12:15.236Z,6.87
2018-05-24T20:18:10.223Z,7.01
2018-05-24T20:24:05.187Z,7.15
2018-05-24T20:30:00.215Z,6.99
2018-05-24T20:35:55.203Z,6.98
2018-05-24T20:41:50.166Z,7.64
2018-05-24T20:47:45.225Z,8.03
2018-05-24T20:53:40.202Z,7.69
2018-05-24T20:59:35.173Z,7.6
2018-05-24T21:05:30.172Z,7.58
2018-05-24T21:11:25.168Z,6.65
2018-05-24T21:17:20.179Z,6.76
2018-05-24T21:23:15.173Z,6.57
2018-05-24T21:29:10.197Z,7.04
2018-05-24T21:35:05.215Z,6.93
2018-05-24T21:41:00.200Z,7.65
2018-05-24T21:46:55.252Z,7.51
2018-05-24T21:52:50.209Z,6.88
2018-05-24T21:58:45.178Z,7.27
2018-05-24T22:04:40.218Z,7.58
2018-05-24T22:10:35.201Z,8.2
2018-05-24T22:16:30.222Z,7.29
2018-05-24T22:22:25.197Z,7.79
2018-05-24T22:28:20.207Z,7.42
2018-05-24T22:34:15.184Z,8.1
2018-05-24T22:40:10.340Z,7.77
2018-05-24T22:46:05.245Z,7.87
2018-05-24T22:52:00.239Z,7.61
2018-05-24T22:57:55.216Z,8.14
2018-05-24T23:03:50.239Z,7.87
2018-05-24T23:09:45.347Z,7.51
2018-05-24T23:15:40.238Z,7.59
2018-05-24T23:21:35.190Z,8.15
2018-05-24T23:27:30.262Z,6.96
2018-05-24T23:33:25.287Z,6.96
2018-05-24T23:39:20.215Z,6.97
2018-05-24T23:45:15.226Z,7.9
2018-05-24T23:51:10.195Z,6.36
2018-05-24T23:57:05.199Z,7.94
